createdAt,value
2022-11-09T00:00:04.367Z,98843.00
2022-11-09T00:01:04.401Z,98837.00
2022-11-09T00:02:04.433Z,98839.00
2022-11-09T00:03:04.408Z,98832.00
2022-11-09T00:04:04.453Z,98828.00
2022-11-09T00:05:04.449Z,98828.00
2022-11-09T00:06:04.454Z,98831.00
2022-11-09T00:07:04.574Z,98835.00
2022-11-09T00:08:04.503Z,98833.00
2022-11-09T00:09:07.890Z,98834.00
2022-11-09T00:10:04.621Z,98839.00
2022-11-09T00:11:04.552Z,98837.00
2022-11-09T00:12:04.567Z,98841.00
2022-11-09T00:13:04.575Z,98837.00
2022-11-09T00:14:04.608Z,98837.00
2022-11-09T00:15:04.634Z,98829.00
2022-11-09T00:16:04.654Z,98827.00
2022-11-09T00:17:04.671Z,98833.00
2022-11-09T00:18:04.695Z,98830.00
2022-11-09T00:19:04.724Z,98827.00
2022-11-09T00:20:04.782Z,98824.00
2022-11-09T00:21:04.753Z,98823.00
2022-11-09T00:22:04.769Z,98824.00
2022-11-09T00:23:04.799Z,98828.00
2022-11-09T00:24:04.858Z,98833.00
2022-11-09T00:25:04.832Z,98830.00
2022-11-09T00:26:04.857Z,98825.00
2022-11-09T00:27:04.887Z,98827.00
2022-11-09T00:28:04.887Z,98826.00
2022-11-09T00:29:04.928Z,98823.00
2022-11-09T00:30:04.904Z,98823.00
2022-11-09T00:31:04.932Z,98823.00
2022-11-09T00:32:04.945Z,98818.00
2022-11-09T00:33:04.970Z,98817.00
2022-11-09T00:34:04.992Z,98813.00
2022-11-09T00:35:05.012Z,98805.00
2022-11-09T00:36:05.094Z,98808.00
2022-11-09T00:37:05.055Z,98807.00
2022-11-09T00:38:05.148Z,98807.00
2022-11-09T00:39:05.090Z,98803.00
2022-11-09T00:40:05.103Z,98804.00
2022-11-09T00:41:05.139Z,98801.00
2022-11-09T00:42:05.164Z,98803.00
2022-11-09T00:43:05.175Z,98806.00
2022-11-09T00:44:05.221Z,98807.00
2022-11-09T00:45:05.229Z,98805.00
2022-11-09T00:46:05.261Z,98812.00
2022-11-09T00:47:05.266Z,98811.00
2022-11-09T00:48:05.304Z,98808.00
2022-11-09T00:49:05.310Z,98812.00
2022-11-09T00:50:05.346Z,98813.00
2022-11-09T00:51:05.360Z,98815.00
2022-11-09T00:52:05.408Z,98810.00
2022-11-09T00:53:05.423Z,98815.00
2022-11-09T00:54:05.443Z,98814.00
2022-11-09T00:55:05.459Z,98809.00
2022-11-09T00:56:05.537Z,98820.00
2022-11-09T00:57:05.472Z,98823.00
2022-11-09T00:58:05.530Z,98825.00
2022-11-09T00:59:05.510Z,98824.00
2022-11-09T01:00:05.514Z,98830.00
2022-11-09T01:01:05.623Z,98832.00
2022-11-09T01:02:05.569Z,98835.00
2022-11-09T01:03:05.590Z,98828.00
2022-11-09T01:04:05.635Z,98834.00
2022-11-09T01:05:05.609Z,98832.00
2022-11-09T01:06:05.636Z,98835.00
2022-11-09T01:07:05.785Z,98839.00
2022-11-09T01:08:05.689Z,98839.00
2022-11-09T01:09:05.702Z,98840.00
2022-11-09T01:10:05.720Z,98840.00
2022-11-09T01:11:05.757Z,98843.00
2022-11-09T01:12:05.764Z,98843.00
2022-11-09T01:13:05.777Z,98839.00
2022-11-09T01:14:05.816Z,98842.00
2022-11-09T01:15:05.822Z,98844.00
2022-11-09T01:16:05.824Z,98843.00
2022-11-09T01:17:05.847Z,98840.00
2022-11-09T01:18:05.891Z,98840.00
2022-11-09T01:19:05.904Z,98840.00
2022-11-09T01:20:05.929Z,98839.00
2022-11-09T01:21:05.949Z,98838.00
2022-11-09T01:22:05.975Z,98844.00
2022-11-09T01:23:05.980Z,98846.00
2022-11-09T01:24:06.033Z,98849.00
2022-11-09T01:25:06.053Z,98849.00
2022-11-09T01:26:06.068Z,98853.00
2022-11-09T01:27:06.111Z,98848.00
2022-11-09T01:28:06.109Z,98842.00
2022-11-09T01:29:06.119Z,98840.00
2022-11-09T01:30:06.157Z,98844.00
2022-11-09T01:31:06.135Z,98844.00
2022-11-09T01:32:06.148Z,98848.00
2022-11-09T01:33:06.169Z,98837.00
2022-11-09T01:34:06.205Z,98844.00
2022-11-09T01:35:06.227Z,98848.00
2022-11-09T01:36:06.275Z,98852.00
2022-11-09T01:37:06.228Z,98855.00
2022-11-09T01:38:06.240Z,98858.00
2022-11-09T01:39:06.262Z,98857.00
2022-11-09T01:40:06.312Z,98859.00
2022-11-09T01:41:06.317Z,98862.00
2022-11-09T01:42:06.341Z,98871.00
2022-11-09T01:43:06.356Z,98873.00
2022-11-09T01:44:06.390Z,98876.00
2022-11-09T01:45:06.426Z,98872.00
2022-11-09T01:46:06.417Z,98863.00
2022-11-09T01:47:06.429Z,98866.00
2022-11-09T01:48:06.446Z,98871.00
2022-11-09T01:49:06.450Z,98875.00
2022-11-09T01:50:06.495Z,98874.00
2022-11-09T01:51:06.465Z,98875.00
2022-11-09T01:52:06.480Z,98870.00
2022-11-09T01:53:06.500Z,98872.00
2022-11-09T01:54:06.515Z,98876.00
2022-11-09T01:55:06.547Z,98875.00
2022-11-09T01:56:06.631Z,98877.00
2022-11-09T01:57:06.595Z,98876.00
2022-11-09T01:58:06.615Z,98874.00
2022-11-09T01:59:06.635Z,98863.00
2022-11-09T02:00:06.661Z,98865.00
2022-11-09T02:01:06.739Z,98866.00
2022-11-09T02:02:06.695Z,98864.00
2022-11-09T02:03:06.703Z,98867.00
2022-11-09T02:04:06.727Z,98863.00
2022-11-09T02:05:06.753Z,98864.00
2022-11-09T02:06:06.727Z,98872.00
2022-11-09T02:07:06.851Z,98870.00
2022-11-09T02:08:06.770Z,98873.00
2022-11-09T02:09:06.778Z,98868.00
2022-11-09T02:10:06.849Z,98862.00
2022-11-09T02:11:07.002Z,98869.00
2022-11-09T02:12:06.796Z,98861.00
2022-11-09T02:13:06.830Z,98860.00
2022-11-09T02:14:06.789Z,98864.00
2022-11-09T02:15:06.819Z,98861.00
2022-11-09T02:16:06.826Z,98857.00
2022-11-09T02:17:06.893Z,98868.00
2022-11-09T02:18:06.858Z,98867.00
2022-11-09T02:19:06.867Z,98866.00
2022-11-09T02:20:06.884Z,98862.00
2022-11-09T02:21:06.901Z,98861.00
2022-11-09T02:22:06.985Z,98864.00
2022-11-09T02:23:06.949Z,98860.00
2022-11-09T02:24:06.965Z,98860.00
2022-11-09T02:25:07.008Z,98856.00
2022-11-09T02:26:07.025Z,98858.00
2022-11-09T02:27:07.045Z,98860.00
2022-11-09T02:28:07.097Z,98858.00
2022-11-09T02:29:07.051Z,98850.00
2022-11-09T02:30:07.074Z,98848.00
2022-11-09T02:31:07.096Z,98847.00
2022-11-09T02:32:07.121Z,98846.00
2022-11-09T02:33:07.147Z,98849.00
2022-11-09T02:34:07.213Z,98850.00
2022-11-09T02:35:07.130Z,98852.00
2022-11-09T02:36:07.156Z,98848.00
2022-11-09T02:37:07.176Z,98854.00
2022-11-09T02:38:07.200Z,98855.00
2022-11-09T02:39:07.220Z,98855.00
2022-11-09T02:40:07.243Z,98856.00
2022-11-09T02:41:07.292Z,98854.00
2022-11-09T02:42:10.195Z,98852.00
2022-11-09T02:43:07.245Z,98856.00
2022-11-09T02:44:07.293Z,98857.00
2022-11-09T02:45:07.294Z,98851.00
2022-11-09T02:46:07.341Z,98856.00
2022-11-09T02:47:07.347Z,98857.00
2022-11-09T02:48:07.348Z,98857.00
2022-11-09T02:49:07.376Z,98854.00
2022-11-09T02:50:07.398Z,98860.00
2022-11-09T02:51:07.447Z,98852.00
2022-11-09T02:52:07.414Z,98856.00
2022-11-09T02:53:07.428Z,98853.00
2022-11-09T02:54:07.473Z,98854.00
2022-11-09T02:55:07.486Z,98855.00
2022-11-09T02:56:07.533Z,98853.00
2022-11-09T02:57:07.514Z,98858.00
2022-11-09T02:58:07.533Z,98859.00
2022-11-09T02:59:07.553Z,98854.00
2022-11-09T03:00:07.601Z,98848.00
2022-11-09T03:01:07.746Z,98854.00
2022-11-09T03:02:07.626Z,98852.00
2022-11-09T03:03:07.657Z,98854.00
2022-11-09T03:04:07.663Z,98853.00
2022-11-09T03:05:07.670Z,98854.00
2022-11-09T03:06:07.705Z,98860.00
2022-11-09T03:07:07.830Z,98855.00
2022-11-09T03:08:07.741Z,98854.00
2022-11-09T03:09:07.760Z,98855.00
2022-11-09T03:10:07.778Z,98852.00
2022-11-09T03:11:07.798Z,98854.00
2022-11-09T03:12:07.821Z,98849.00
2022-11-09T03:13:07.876Z,98849.00
2022-11-09T03:14:07.848Z,98851.00
2022-11-09T03:15:07.872Z,98850.00
2022-11-09T03:16:07.968Z,98845.00
2022-11-09T03:17:07.890Z,98848.00
2022-11-09T03:18:07.935Z,98848.00
2022-11-09T03:19:07.906Z,98845.00
2022-11-09T03:20:07.930Z,98845.00
2022-11-09T03:21:07.942Z,98851.00
2022-11-09T03:22:07.964Z,98846.00
2022-11-09T03:23:07.987Z,98848.00
2022-11-09T03:24:08.017Z,98847.00
2022-11-09T03:25:08.057Z,98851.00
2022-11-09T03:26:08.016Z,98854.00
2022-11-09T03:27:08.047Z,98849.00
2022-11-09T03:28:08.043Z,98857.00
2022-11-09T03:29:08.072Z,98857.00
2022-11-09T03:30:08.086Z,98857.00
2022-11-09T03:31:08.089Z,98853.00
2022-11-09T03:32:08.066Z,98856.00
2022-11-09T03:33:08.092Z,98853.00
2022-11-09T03:34:08.143Z,98853.00
2022-11-09T03:35:08.110Z,98853.00
2022-11-09T03:36:08.132Z,98852.00
2022-11-09T03:37:08.153Z,98852.00
2022-11-09T03:38:08.198Z,98852.00
2022-11-09T03:39:08.182Z,98845.00
2022-11-09T03:40:08.204Z,98855.00
2022-11-09T03:41:08.220Z,98857.00
2022-11-09T03:42:08.228Z,98860.00
2022-11-09T03:43:08.248Z,98861.00
2022-11-09T03:44:08.275Z,98859.00
2022-11-09T03:45:08.292Z,98857.00
2022-11-09T03:46:08.308Z,98854.00
2022-11-09T03:47:08.314Z,98857.00
2022-11-09T03:48:08.405Z,98854.00
2022-11-09T03:49:08.320Z,98854.00
2022-11-09T03:50:08.292Z,98857.00
2022-11-09T03:51:08.348Z,98862.00
2022-11-09T03:52:08.352Z,98860.00
2022-11-09T03:53:08.366Z,98864.00
2022-11-09T03:54:08.383Z,98868.00
2022-11-09T03:55:08.399Z,98869.00
2022-11-09T03:56:08.401Z,98869.00
2022-11-09T03:57:08.424Z,98875.00
2022-11-09T03:58:08.439Z,98868.00
2022-11-09T03:59:08.456Z,98874.00
2022-11-09T04:00:08.486Z,98877.00
2022-11-09T04:01:08.513Z,98881.00
2022-11-09T04:02:08.679Z,98883.00
2022-11-09T04:03:08.558Z,98885.00
2022-11-09T04:04:08.613Z,98888.00
2022-11-09T04:05:08.646Z,98889.00
2022-11-09T04:06:08.607Z,98888.00
2022-11-09T04:07:08.720Z,98888.00
2022-11-09T04:08:08.605Z,98888.00
2022-11-09T04:09:08.629Z,98894.00
2022-11-09T04:10:08.629Z,98887.00
2022-11-09T04:11:08.648Z,98888.00
2022-11-09T04:12:08.656Z,98887.00
2022-11-09T04:13:08.682Z,98887.00
2022-11-09T04:14:08.717Z,98887.00
2022-11-09T04:15:08.731Z,98889.00
2022-11-09T04:16:08.751Z,98888.00
2022-11-09T04:17:08.781Z,98882.00
2022-11-09T04:18:08.776Z,98878.00
2022-11-09T04:19:08.801Z,98879.00
2022-11-09T04:20:08.861Z,98876.00
2022-11-09T04:21:08.889Z,98875.00
2022-11-09T04:22:08.864Z,98875.00
2022-11-09T04:23:08.862Z,98877.00
2022-11-09T04:24:08.897Z,98877.00
2022-11-09T04:25:08.917Z,98878.00
2022-11-09T04:26:08.945Z,98876.00
2022-11-09T04:27:08.962Z,98875.00
2022-11-09T04:28:08.963Z,98879.00
2022-11-09T04:29:08.975Z,98876.00
2022-11-09T04:30:08.999Z,98875.00
2022-11-09T04:31:09.028Z,98881.00
2022-11-09T04:32:09.041Z,98877.00
2022-11-09T04:33:09.070Z,98873.00
2022-11-09T04:34:09.105Z,98863.00
2022-11-09T04:35:09.073Z,98864.00
2022-11-09T04:36:09.116Z,98866.00
2022-11-09T04:37:09.088Z,98865.00
2022-11-09T04:38:09.109Z,98868.00
2022-11-09T04:39:09.130Z,98865.00
2022-11-09T04:40:09.161Z,98868.00
2022-11-09T04:41:09.174Z,98869.00
2022-11-09T04:42:09.204Z,98871.00
2022-11-09T04:43:09.179Z,98868.00
2022-11-09T04:44:09.198Z,98864.00
2022-11-09T04:45:09.199Z,98870.00
2022-11-09T04:46:09.231Z,98869.00
2022-11-09T04:47:09.208Z,98873.00
2022-11-09T04:48:09.182Z,98863.00
2022-11-09T04:49:09.202Z,98866.00
2022-11-09T04:50:09.207Z,98863.00
2022-11-09T04:51:09.225Z,98864.00
2022-11-09T04:52:09.228Z,98863.00
2022-11-09T04:53:09.230Z,98858.00
2022-11-09T04:54:09.272Z,98856.00
2022-11-09T04:55:09.247Z,98859.00
2022-11-09T04:56:09.259Z,98855.00
2022-11-09T04:57:09.281Z,98853.00
2022-11-09T04:58:09.292Z,98849.00
2022-11-09T04:59:09.305Z,98840.00
2022-11-09T05:00:09.340Z,98838.00
2022-11-09T05:01:09.343Z,98836.00
2022-11-09T05:02:09.362Z,98836.00
2022-11-09T05:03:09.383Z,98828.00
2022-11-09T05:04:09.517Z,98830.00
2022-11-09T05:05:09.391Z,98826.00
2022-11-09T05:06:09.371Z,98829.00
2022-11-09T05:07:09.443Z,98832.00
2022-11-09T05:08:09.446Z,98837.00
2022-11-09T05:09:09.453Z,98844.00
2022-11-09T05:10:09.479Z,98853.00
2022-11-09T05:11:09.489Z,98846.00
2022-11-09T05:12:09.522Z,98848.00
2022-11-09T05:13:09.545Z,98841.00
2022-11-09T05:14:09.791Z,98843.00
2022-11-09T05:15:09.572Z,98834.00
2022-11-09T05:16:09.584Z,98831.00
2022-11-09T05:17:09.607Z,98841.00
2022-11-09T05:18:09.632Z,98849.00
2022-11-09T05:19:09.649Z,98863.00
2022-11-09T05:20:09.682Z,98873.00
2022-11-09T05:21:09.700Z,98871.00
2022-11-09T05:22:09.745Z,98872.00
2022-11-09T05:23:09.719Z,98884.00
2022-11-09T05:24:09.752Z,98890.00
2022-11-09T05:25:09.740Z,98890.00
2022-11-09T05:26:09.762Z,98883.00
2022-11-09T05:27:09.772Z,98880.00
2022-11-09T05:28:09.926Z,98886.00
2022-11-09T05:29:09.803Z,98881.00
2022-11-09T05:30:09.816Z,98875.00
2022-11-09T05:31:09.863Z,98880.00
2022-11-09T05:32:09.825Z,98879.00
2022-11-09T05:33:09.849Z,98879.00
2022-11-09T05:34:09.869Z,98880.00
2022-11-09T05:35:09.913Z,98880.00
2022-11-09T05:36:09.936Z,98877.00
2022-11-09T05:37:09.964Z,98881.00
2022-11-09T05:38:09.979Z,98885.00
2022-11-09T05:39:09.995Z,98887.00
2022-11-09T05:40:10.030Z,98885.00
2022-11-09T05:41:10.056Z,98888.00
2022-11-09T05:42:10.061Z,98890.00
2022-11-09T05:43:10.087Z,98892.00
2022-11-09T05:44:10.115Z,98889.00
2022-11-09T05:45:40.185Z,98883.00
2022-11-09T05:46:10.147Z,98890.00
2022-11-09T05:47:10.143Z,98885.00
2022-11-09T05:48:10.174Z,98885.00
2022-11-09T05:49:10.179Z,98884.00
2022-11-09T05:50:10.205Z,98881.00
2022-11-09T05:51:10.243Z,98880.00
2022-11-09T05:52:10.257Z,98880.00
2022-11-09T05:53:10.283Z,98883.00
2022-11-09T05:54:10.313Z,98886.00
2022-11-09T05:55:10.335Z,98883.00
2022-11-09T05:56:10.444Z,98887.00
2022-11-09T05:57:10.371Z,98885.00
2022-11-09T05:58:10.377Z,98883.00
2022-11-09T05:59:10.408Z,98884.00
2022-11-09T06:00:11.200Z,98879.00
2022-11-09T06:02:36.424Z,98878.00
2022-11-09T06:03:36.394Z,98878.00
2022-11-09T06:04:36.417Z,98876.00
2022-11-09T06:05:36.435Z,98879.00
2022-11-09T06:06:36.494Z,98885.00
2022-11-09T06:07:36.433Z,98890.00
2022-11-09T06:08:36.460Z,98896.00
2022-11-09T06:09:36.470Z,98894.00
2022-11-09T06:10:36.486Z,98896.00
2022-11-09T06:11:36.564Z,98896.00
2022-11-09T06:12:36.529Z,98895.00
2022-11-09T06:13:36.551Z,98895.00
2022-11-09T06:14:36.577Z,98895.00
2022-11-09T06:15:36.617Z,98896.00
2022-11-09T06:16:36.623Z,98893.00
2022-11-09T06:17:36.658Z,98896.00
2022-11-09T06:18:36.724Z,98899.00
2022-11-09T06:19:36.702Z,98902.00
2022-11-09T06:20:36.742Z,98902.00
2022-11-09T06:21:36.700Z,98903.00
2022-11-09T06:22:36.719Z,98903.00
2022-11-09T06:23:36.748Z,98903.00
2022-11-09T06:24:36.784Z,98904.00
2022-11-09T06:25:36.786Z,98901.00
2022-11-09T06:26:36.823Z,98902.00
2022-11-09T06:27:36.845Z,98896.00
2022-11-09T06:28:36.816Z,98897.00
2022-11-09T06:29:36.860Z,98896.00
2022-11-09T06:30:36.855Z,98891.00
2022-11-09T06:31:36.876Z,98890.00
2022-11-09T06:32:36.899Z,98897.00
2022-11-09T06:33:36.919Z,98890.00
2022-11-09T06:34:36.941Z,98892.00
2022-11-09T06:35:36.925Z,98887.00
2022-11-09T06:36:36.969Z,98888.00
2022-11-09T06:37:36.988Z,98886.00
2022-11-09T06:38:37.010Z,98888.00
2022-11-09T06:39:37.019Z,98896.00
2022-11-09T06:40:37.051Z,98892.00
2022-11-09T06:41:37.080Z,98894.00
2022-11-09T06:42:37.090Z,98895.00
2022-11-09T06:43:37.071Z,98896.00
2022-11-09T06:44:37.082Z,98899.00
2022-11-09T06:45:37.112Z,98899.00
2022-11-09T06:46:37.139Z,98900.00
2022-11-09T06:47:37.174Z,98894.00
2022-11-09T06:48:37.136Z,98894.00
2022-11-09T06:49:37.146Z,98894.00
2022-11-09T06:50:37.158Z,98901.00
2022-11-09T06:51:37.227Z,98902.00
2022-11-09T06:52:37.224Z,98899.00
2022-11-09T06:53:37.184Z,98905.00
2022-11-09T06:54:37.236Z,98907.00
2022-11-09T06:55:37.184Z,98907.00
2022-11-09T06:56:37.191Z,98905.00
2022-11-09T06:57:37.201Z,98908.00
2022-11-09T06:58:37.209Z,98911.00
2022-11-09T06:59:37.241Z,98916.00
2022-11-09T07:00:37.280Z,98915.00
2022-11-09T07:01:37.332Z,98919.00
2022-11-09T07:02:37.310Z,98916.00
2022-11-09T07:03:37.250Z,98921.00
2022-11-09T07:04:37.253Z,98924.00
2022-11-09T07:05:37.274Z,98929.00
2022-11-09T07:06:37.291Z,98923.00
2022-11-09T07:07:37.257Z,98931.00
2022-11-09T07:08:37.284Z,98935.00
2022-11-09T07:09:37.292Z,98938.00
2022-11-09T07:10:37.309Z,98941.00
2022-11-09T07:11:37.331Z,98938.00
2022-11-09T07:12:37.348Z,98941.00
2022-11-09T07:13:37.382Z,98946.00
2022-11-09T07:14:37.404Z,98944.00
2022-11-09T07:15:37.523Z,98950.00
2022-11-09T07:16:37.537Z,98951.00
2022-11-09T07:17:37.442Z,98949.00
2022-11-09T07:18:37.457Z,98961.00
2022-11-09T07:19:37.479Z,98962.00
2022-11-09T07:20:37.496Z,98963.00
2022-11-09T07:21:37.524Z,98966.00
2022-11-09T07:22:37.494Z,98967.00
2022-11-09T07:23:37.540Z,98967.00
2022-11-09T07:24:37.550Z,98967.00
2022-11-09T07:25:37.563Z,98967.00
2022-11-09T07:26:37.573Z,98968.00
2022-11-09T07:27:37.618Z,98969.00
2022-11-09T07:28:37.602Z,98971.00
2022-11-09T07:29:38.486Z,98974.00
2022-11-09T07:30:37.601Z,98975.00
2022-11-09T07:31:37.847Z,98979.00
2022-11-09T07:33:37.630Z,98976.00
2022-11-09T07:34:37.682Z,98983.00
2022-11-09T07:35:37.657Z,98985.00
2022-11-09T07:36:37.698Z,98984.00
2022-11-09T07:37:37.709Z,98982.00
2022-11-09T07:38:37.728Z,98981.00
2022-11-09T07:39:37.771Z,98981.00
2022-11-09T07:40:37.793Z,98980.00
2022-11-09T07:41:37.796Z,98981.00
2022-11-09T07:42:37.818Z,98983.00
2022-11-09T07:43:37.840Z,98981.00
2022-11-09T07:44:37.889Z,98982.00
2022-11-09T07:45:37.845Z,98979.00
2022-11-09T07:46:37.887Z,98976.00
2022-11-09T07:47:37.976Z,98968.00
2022-11-09T07:48:37.907Z,98962.00
2022-11-09T07:49:37.931Z,98963.00
2022-11-09T07:50:37.959Z,98960.00
2022-11-09T07:51:37.919Z,98958.00
2022-11-09T07:52:37.928Z,98956.00
2022-11-09T07:53:37.970Z,98960.00
2022-11-09T07:54:37.948Z,98957.00
2022-11-09T07:55:37.959Z,98957.00
2022-11-09T07:56:38.076Z,98957.00
2022-11-09T07:57:37.999Z,98961.00
2022-11-09T07:58:38.016Z,98958.00
2022-11-09T07:59:38.050Z,98963.00
2022-11-09T08:00:38.041Z,98963.00
2022-11-09T08:01:38.142Z,98967.00
2022-11-09T08:02:38.088Z,98966.00
2022-11-09T08:03:38.152Z,98971.00
2022-11-09T08:04:38.116Z,98971.00
2022-11-09T08:05:38.116Z,98975.00
2022-11-09T08:06:38.212Z,98967.00
2022-11-09T08:07:38.140Z,98972.00
2022-11-09T08:08:38.185Z,98977.00
2022-11-09T08:09:38.167Z,98977.00
2022-11-09T08:10:38.149Z,98976.00
2022-11-09T08:11:38.186Z,98975.00
2022-11-09T08:12:38.169Z,98977.00
2022-11-09T08:13:38.210Z,98975.00
2022-11-09T08:14:38.168Z,98978.00
2022-11-09T08:15:38.175Z,98980.00
2022-11-09T08:16:38.205Z,98977.00
2022-11-09T08:17:38.168Z,98985.00
2022-11-09T08:18:38.223Z,98983.00
2022-11-09T08:19:38.250Z,98989.00
2022-11-09T08:20:38.246Z,98988.00
2022-11-09T08:21:38.266Z,98988.00
2022-11-09T08:22:38.285Z,98990.00
2022-11-09T08:23:38.325Z,98992.00
2022-11-09T08:24:38.281Z,98987.00
2022-11-09T08:25:38.304Z,98990.00
2022-11-09T08:26:38.308Z,98987.00
2022-11-09T08:27:38.354Z,98991.00
2022-11-09T08:28:38.335Z,98986.00
2022-11-09T08:29:38.355Z,98984.00
2022-11-09T08:30:38.509Z,98973.00
2022-11-09T08:31:38.420Z,98970.00
2022-11-09T08:32:38.446Z,98957.00
2022-11-09T08:33:38.387Z,98960.00
2022-11-09T08:34:38.431Z,98957.00
2022-11-09T08:35:38.420Z,98959.00
2022-11-09T08:36:38.537Z,98953.00
2022-11-09T08:37:38.497Z,98950.00
2022-11-09T08:38:38.467Z,98953.00
2022-11-09T08:39:38.529Z,98953.00
2022-11-09T08:40:38.488Z,98952.00
2022-11-09T08:41:38.888Z,98950.00
2022-11-09T08:42:38.560Z,98943.00
2022-11-09T08:43:38.534Z,98941.00
2022-11-09T08:44:38.555Z,98947.00
2022-11-09T08:45:38.564Z,98953.00
2022-11-09T08:46:41.427Z,98952.00
2022-11-09T08:47:38.568Z,98957.00
2022-11-09T08:48:38.576Z,98964.00
2022-11-09T08:49:38.607Z,98969.00
2022-11-09T08:50:38.613Z,98969.00
2022-11-09T08:51:38.652Z,98964.00
2022-11-09T08:52:38.673Z,98968.00
2022-11-09T08:53:38.703Z,98970.00
2022-11-09T08:54:38.673Z,98969.00
2022-11-09T08:55:38.744Z,98964.00
2022-11-09T08:56:38.712Z,98969.00
2022-11-09T08:57:38.765Z,98975.00
2022-11-09T08:58:38.758Z,98974.00
2022-11-09T08:59:38.737Z,98972.00
2022-11-09T09:00:38.766Z,98973.00
2022-11-09T09:01:38.957Z,98979.00
2022-11-09T09:02:38.817Z,98971.00
2022-11-09T09:03:38.873Z,98969.00
2022-11-09T09:04:38.833Z,98968.00
2022-11-09T09:05:38.889Z,98967.00
2022-11-09T09:06:38.954Z,98966.00
2022-11-09T09:07:39.047Z,98964.00
2022-11-09T09:08:38.897Z,98965.00
2022-11-09T09:09:39.012Z,98962.00
2022-11-09T09:10:38.940Z,98962.00
2022-11-09T09:11:38.923Z,98965.00
2022-11-09T09:12:38.967Z,98957.00
2022-11-09T09:13:43.027Z,98962.00
2022-11-09T09:14:39.011Z,98962.00
2022-11-09T09:15:39.000Z,98958.00
2022-11-09T09:16:39.078Z,98959.00
2022-11-09T09:17:39.009Z,98962.00
2022-11-09T09:18:38.990Z,98963.00
2022-11-09T09:19:39.020Z,98964.00
2022-11-09T09:20:39.025Z,98966.00
2022-11-09T09:21:39.124Z,98967.00
2022-11-09T09:22:39.046Z,98968.00
2022-11-09T09:23:39.087Z,98963.00
2022-11-09T09:24:39.104Z,98965.00
2022-11-09T09:25:39.065Z,98959.00
2022-11-09T09:26:39.112Z,98957.00
2022-11-09T09:27:39.082Z,98962.00
2022-11-09T09:28:39.125Z,98959.00
2022-11-09T09:29:39.170Z,98960.00
2022-11-09T09:30:39.156Z,98963.00
2022-11-09T09:31:39.104Z,98963.00
2022-11-09T09:32:39.579Z,98967.00
2022-11-09T09:33:39.146Z,98977.00
2022-11-09T09:34:39.153Z,98972.00
2022-11-09T09:35:39.151Z,98977.00
2022-11-09T09:36:43.318Z,98975.00
2022-11-09T09:37:39.181Z,98980.00
2022-11-09T09:38:39.159Z,98976.00
2022-11-09T09:39:39.200Z,98977.00
2022-11-09T09:40:39.268Z,98977.00
2022-11-09T09:41:39.220Z,98975.00
2022-11-09T09:42:39.246Z,98976.00
2022-11-09T09:43:42.998Z,98973.00
2022-11-09T09:44:39.249Z,98981.00
2022-11-09T09:45:39.273Z,98983.00
2022-11-09T09:46:39.301Z,98980.00
2022-11-09T09:47:39.284Z,98985.00
2022-11-09T09:48:39.324Z,98986.00
2022-11-09T09:49:39.325Z,98988.00
2022-11-09T09:50:39.326Z,98990.00
2022-11-09T09:51:39.353Z,98991.00
2022-11-09T09:52:39.384Z,98994.00
2022-11-09T09:53:39.368Z,98993.00
2022-11-09T09:54:39.381Z,99000.00
2022-11-09T09:55:39.426Z,98997.00
2022-11-09T09:56:39.457Z,99001.00
2022-11-09T09:57:42.100Z,98999.00
2022-11-09T09:58:39.464Z,99003.00
2022-11-09T09:59:39.479Z,99004.00
2022-11-09T10:00:39.471Z,99005.00
2022-11-09T10:01:39.466Z,99007.00
2022-11-09T10:02:39.526Z,99007.00
2022-11-09T10:03:39.510Z,99010.00
2022-11-09T10:04:39.688Z,99009.00
2022-11-09T10:05:39.515Z,99003.00
2022-11-09T10:06:39.543Z,98999.00
2022-11-09T10:07:39.514Z,98997.00
2022-11-09T10:08:39.502Z,98990.00
2022-11-09T10:09:39.488Z,98992.00
2022-11-09T10:10:39.517Z,98992.00
2022-11-09T10:11:39.609Z,98991.00
2022-11-09T10:12:39.584Z,98993.00
2022-11-09T10:13:39.570Z,98991.00
2022-11-09T10:14:39.586Z,98994.00
2022-11-09T10:15:39.614Z,98993.00
2022-11-09T10:16:39.636Z,99001.00
2022-11-09T10:17:39.746Z,98996.00
2022-11-09T10:18:39.652Z,98998.00
2022-11-09T10:19:39.685Z,98999.00
2022-11-09T10:20:39.716Z,99000.00
2022-11-09T10:21:39.749Z,98998.00
2022-11-09T10:22:39.746Z,98999.00
2022-11-09T10:23:39.769Z,98997.00
2022-11-09T10:24:48.620Z,99002.00
2022-11-09T10:26:39.801Z,98997.00
2022-11-09T10:27:39.819Z,98990.00
2022-11-09T10:29:09.198Z,98995.00
2022-11-09T10:29:39.826Z,98997.00
2022-11-09T10:30:39.883Z,98994.00
2022-11-09T10:31:39.943Z,98995.00
2022-11-09T10:32:39.900Z,98997.00
2022-11-09T10:33:39.876Z,98999.00
2022-11-09T10:34:39.856Z,98994.00
2022-11-09T10:35:39.844Z,98989.00
2022-11-09T10:36:39.902Z,98992.00
2022-11-09T10:41:40.980Z,98994.00
2022-11-09T10:42:40.465Z,98989.00
2022-11-09T10:43:40.557Z,98989.00
2022-11-09T10:44:40.670Z,98992.00
2022-11-09T10:45:40.417Z,98988.00
2022-11-09T10:46:40.422Z,98991.00
2022-11-09T10:47:40.413Z,98983.00
2022-11-09T10:48:40.627Z,98985.00
2022-11-09T10:49:40.928Z,98986.00
2022-11-09T10:53:40.484Z,98981.00
2022-11-09T10:54:40.566Z,98975.00
2022-11-09T10:55:40.556Z,98977.00
2022-11-09T10:57:00.623Z,98976.00
2022-11-09T10:57:40.345Z,98973.00
2022-11-09T10:58:40.419Z,98971.00
2022-11-09T10:59:40.434Z,98970.00
2022-11-09T11:00:40.476Z,98965.00
2022-11-09T11:01:40.423Z,98967.00
2022-11-09T11:02:40.536Z,98963.00
2022-11-09T11:03:40.636Z,98961.00
2022-11-09T11:04:40.408Z,98962.00
2022-11-09T11:05:40.458Z,98960.00
2022-11-09T11:06:40.543Z,98955.00
2022-11-09T11:07:40.440Z,98959.00
2022-11-09T11:08:40.494Z,98956.00
2022-11-09T11:09:40.479Z,98958.00
2022-11-09T11:10:41.034Z,98957.00
2022-11-09T11:11:40.952Z,98956.00
2022-11-09T11:12:40.575Z,98959.00
2022-11-09T11:13:40.521Z,98962.00
2022-11-09T11:14:40.596Z,98962.00
2022-11-09T11:17:06.639Z,98959.00
2022-11-09T11:18:06.588Z,98959.00
2022-11-09T11:19:06.571Z,98955.00
2022-11-09T11:20:06.715Z,98959.00
2022-11-09T11:27:29.720Z,98939.00
2022-11-09T11:30:20.815Z,98942.00
2022-11-09T11:34:10.979Z,98938.00
2022-11-09T11:35:10.939Z,98935.00
2022-11-09T11:36:10.950Z,98932.00
2022-11-09T11:37:10.952Z,98935.00
2022-11-09T11:38:10.978Z,98931.00
2022-11-09T11:39:11.039Z,98934.00
2022-11-09T11:40:11.011Z,98932.00
2022-11-09T11:41:11.003Z,98939.00
2022-11-09T11:42:11.038Z,98939.00
2022-11-09T11:43:11.069Z,98933.00
2022-11-09T11:44:11.156Z,98939.00
2022-11-09T11:45:39.133Z,98941.00
2022-11-09T11:46:11.084Z,98944.00
2022-11-09T11:47:11.222Z,98948.00
2022-11-09T11:48:11.139Z,98944.00
2022-11-09T11:49:11.166Z,98940.00
2022-11-09T11:50:11.211Z,98941.00
2022-11-09T11:51:11.197Z,98936.00
2022-11-09T11:52:11.187Z,98944.00
2022-11-09T11:53:11.189Z,98941.00
2022-11-09T11:54:11.201Z,98946.00
2022-11-09T11:55:11.234Z,98944.00
2022-11-09T11:56:11.216Z,98946.00
2022-11-09T11:57:11.252Z,98947.00
2022-11-09T11:58:11.223Z,98949.00
2022-11-09T11:59:11.367Z,98954.00
2022-11-09T12:00:11.278Z,98954.00
2022-11-09T12:01:11.339Z,98950.00
2022-11-09T12:02:11.410Z,98954.00
2022-11-09T12:03:11.412Z,98957.00
2022-11-09T12:04:11.341Z,98956.00
2022-11-09T12:05:11.336Z,98960.00
2022-11-09T12:06:11.505Z,98961.00
2022-11-09T12:07:11.424Z,98958.00